sensor_id;sensor_type;location;lat;lon;timestamp;P1;durP1;ratioP1;P2;durP2;ratioP2
29196;SDS011;62796;42.654;23.316;2022-10-31T00:01:41;6.22;;;4.05;;
29196;SDS011;62796;42.654;23.316;2022-10-31T00:04:06;6.80;;;3.80;;
29196;SDS011;62796;42.654;23.316;2022-10-31T00:06:32;7.47;;;3.85;;
29196;SDS011;62796;42.654;23.316;2022-10-31T00:08:58;10.10;;;3.90;;
29196;SDS011;62796;42.654;23.316;2022-10-31T00:11:24;8.55;;;3.70;;
29196;SDS011;62796;42.654;23.316;2022-10-31T00:13:49;10.05;;;4.88;;
29196;SDS011;62796;42.654;23.316;2022-10-31T00:16:19;7.93;;;3.80;;
29196;SDS011;62796;42.654;23.316;2022-10-31T00:18:47;6.93;;;4.22;;
29196;SDS011;62796;42.654;23.316;2022-10-31T00:21:12;6.53;;;4.20;;
29196;SDS011;62796;42.654;23.316;2022-10-31T00:23:37;8.53;;;4.67;;
29196;SDS011;62796;42.654;23.316;2022-10-31T00:26:03;7.90;;;4.53;;
29196;SDS011;62796;42.654;23.316;2022-10-31T00:28:29;10.20;;;4.40;;
29196;SDS011;62796;42.654;23.316;2022-10-31T00:30:58;10.23;;;4.80;;
29196;SDS011;62796;42.654;23.316;2022-10-31T00:33:23;9.48;;;4.65;;
29196;SDS011;62796;42.654;23.316;2022-10-31T00:35:51;8.05;;;4.57;;
29196;SDS011;62796;42.654;23.316;2022-10-31T00:38:16;8.43;;;4.00;;
29196;SDS011;62796;42.654;23.316;2022-10-31T00:40:42;9.73;;;4.27;;
29196;SDS011;62796;42.654;23.316;2022-10-31T00:43:07;8.33;;;4.37;;
29196;SDS011;62796;42.654;23.316;2022-10-31T00:45:32;9.82;;;4.40;;
29196;SDS011;62796;42.654;23.316;2022-10-31T00:47:57;6.97;;;3.70;;
29196;SDS011;62796;42.654;23.316;2022-10-31T00:50:22;9.67;;;4.47;;
29196;SDS011;62796;42.654;23.316;2022-10-31T00:52:48;5.77;;;3.60;;
29196;SDS011;62796;42.654;23.316;2022-10-31T00:55:13;7.37;;;4.20;;
29196;SDS011;62796;42.654;23.316;2022-10-31T00:57:38;7.72;;;4.22;;
29196;SDS011;62796;42.654;23.316;2022-10-31T01:00:04;11.30;;;3.97;;
29196;SDS011;62796;42.654;23.316;2022-10-31T01:02:29;9.48;;;3.85;;
29196;SDS011;62796;42.654;23.316;2022-10-31T01:04:54;9.13;;;4.27;;
29196;SDS011;62796;42.654;23.316;2022-10-31T01:07:19;7.50;;;4.07;;
29196;SDS011;62796;42.654;23.316;2022-10-31T01:09:45;7.53;;;4.43;;
29196;SDS011;62796;42.654;23.316;2022-10-31T01:12:10;6.67;;;4.03;;
29196;SDS011;62796;42.654;23.316;2022-10-31T01:14:35;13.25;;;4.22;;
29196;SDS011;62796;42.654;23.316;2022-10-31T01:17:00;8.77;;;4.10;;
29196;SDS011;62796;42.654;23.316;2022-10-31T01:19:26;7.47;;;4.30;;
29196;SDS011;62796;42.654;23.316;2022-10-31T01:21:53;6.70;;;3.90;;
29196;SDS011;62796;42.654;23.316;2022-10-31T01:24:18;11.63;;;4.35;;
29196;SDS011;62796;42.654;23.316;2022-10-31T01:26:44;9.97;;;4.33;;
29196;SDS011;62796;42.654;23.316;2022-10-31T01:29:09;9.47;;;4.47;;
29196;SDS011;62796;42.654;23.316;2022-10-31T01:31:35;10.57;;;4.55;;
29196;SDS011;62796;42.654;23.316;2022-10-31T01:34:01;6.80;;;3.85;;
29196;SDS011;62796;42.654;23.316;2022-10-31T01:36:28;7.55;;;4.20;;
29196;SDS011;62796;42.654;23.316;2022-10-31T01:38:55;8.32;;;4.97;;
29196;SDS011;62796;42.654;23.316;2022-10-31T01:41:24;9.18;;;4.65;;
29196;SDS011;62796;42.654;23.316;2022-10-31T01:43:54;9.48;;;5.43;;
29196;SDS011;62796;42.654;23.316;2022-10-31T01:46:22;9.05;;;5.15;;
29196;SDS011;62796;42.654;23.316;2022-10-31T01:48:47;13.32;;;5.55;;
29196;SDS011;62796;42.654;23.316;2022-10-31T01:51:13;10.48;;;5.90;;
29196;SDS011;62796;42.654;23.316;2022-10-31T01:53:39;12.60;;;5.32;;
29196;SDS011;62796;42.654;23.316;2022-10-31T01:56:06;10.02;;;5.70;;
29196;SDS011;62796;42.654;23.316;2022-10-31T01:58:32;11.00;;;5.60;;
29196;SDS011;62796;42.654;23.316;2022-10-31T02:00:58;9.23;;;5.78;;
29196;SDS011;62796;42.654;23.316;2022-10-31T02:03:23;11.13;;;5.30;;
29196;SDS011;62796;42.654;23.316;2022-10-31T02:05:50;12.10;;;5.53;;
29196;SDS011;62796;42.654;23.316;2022-10-31T02:10:42;7.80;;;5.23;;
29196;SDS011;62796;42.654;23.316;2022-10-31T02:13:08;12.98;;;5.78;;
29196;SDS011;62796;42.654;23.316;2022-10-31T02:15:33;9.07;;;5.60;;
29196;SDS011;62796;42.654;23.316;2022-10-31T02:17:59;10.65;;;5.80;;
29196;SDS011;62796;42.654;23.316;2022-10-31T02:20:25;10.38;;;5.80;;
29196;SDS011;62796;42.654;23.316;2022-10-31T02:25:41;8.55;;;5.45;;
29196;SDS011;62796;42.654;23.316;2022-10-31T02:40:59;11.60;;;6.70;;
29196;SDS011;62796;42.654;23.316;2022-10-31T02:43:31;11.90;;;6.57;;
29196;SDS011;62796;42.654;23.316;2022-10-31T02:48:38;9.27;;;5.93;;
29196;SDS011;62796;42.654;23.316;2022-10-31T02:51:04;9.75;;;6.47;;
29196;SDS011;62796;42.654;23.316;2022-10-31T02:53:34;12.15;;;6.50;;
29196;SDS011;62796;42.654;23.316;2022-10-31T02:58:31;11.25;;;6.60;;
29196;SDS011;62796;42.654;23.316;2022-10-31T03:08:59;9.87;;;6.30;;
29196;SDS011;62796;42.654;23.316;2022-10-31T03:11:29;10.00;;;6.07;;
29196;SDS011;62796;42.654;23.316;2022-10-31T03:13:58;12.13;;;6.38;;
29196;SDS011;62796;42.654;23.316;2022-10-31T03:16:37;11.32;;;5.82;;
29196;SDS011;62796;42.654;23.316;2022-10-31T03:19:09;10.02;;;6.20;;
29196;SDS011;62796;42.654;23.316;2022-10-31T03:21:36;13.77;;;6.43;;
29196;SDS011;62796;42.654;23.316;2022-10-31T03:24:05;9.73;;;6.43;;
29196;SDS011;62796;42.654;23.316;2022-10-31T03:26:31;14.23;;;6.53;;
29196;SDS011;62796;42.654;23.316;2022-10-31T03:28:59;12.85;;;6.50;;
29196;SDS011;62796;42.654;23.316;2022-10-31T03:31:29;10.65;;;6.43;;
29196;SDS011;62796;42.654;23.316;2022-10-31T03:33:56;10.00;;;6.05;;
29196;SDS011;62796;42.654;23.316;2022-10-31T03:36:23;12.50;;;6.90;;
29196;SDS011;62796;42.654;23.316;2022-10-31T03:38:49;14.15;;;6.97;;
29196;SDS011;62796;42.654;23.316;2022-10-31T03:41:17;13.02;;;6.95;;
29196;SDS011;62796;42.654;23.316;2022-10-31T03:43:45;17.27;;;6.80;;
29196;SDS011;62796;42.654;23.316;2022-10-31T03:46:11;11.48;;;6.15;;
29196;SDS011;62796;42.654;23.316;2022-10-31T03:48:37;10.95;;;6.25;;
29196;SDS011;62796;42.654;23.316;2022-10-31T03:53:32;12.38;;;6.25;;
29196;SDS011;62796;42.654;23.316;2022-10-31T03:56:04;12.05;;;6.38;;
29196;SDS011;62796;42.654;23.316;2022-10-31T03:58:34;11.15;;;6.85;;
29196;SDS011;62796;42.654;23.316;2022-10-31T04:01:03;12.43;;;7.32;;
29196;SDS011;62796;42.654;23.316;2022-10-31T04:03:31;12.07;;;6.88;;
29196;SDS011;62796;42.654;23.316;2022-10-31T04:05:58;14.00;;;6.88;;
29196;SDS011;62796;42.654;23.316;2022-10-31T04:08:24;10.10;;;6.82;;
29196;SDS011;62796;42.654;23.316;2022-10-31T04:10:51;10.57;;;7.00;;
29196;SDS011;62796;42.654;23.316;2022-10-31T04:13:19;10.32;;;6.72;;
29196;SDS011;62796;42.654;23.316;2022-10-31T04:15:45;13.52;;;7.30;;
29196;SDS011;62796;42.654;23.316;2022-10-31T04:18:10;13.55;;;7.60;;
29196;SDS011;62796;42.654;23.316;2022-10-31T04:20:37;12.10;;;7.75;;
29196;SDS011;62796;42.654;23.316;2022-10-31T04:23:02;12.85;;;7.70;;
29196;SDS011;62796;42.654;23.316;2022-10-31T04:25:28;11.57;;;7.85;;
29196;SDS011;62796;42.654;23.316;2022-10-31T04:27:53;12.70;;;7.60;;
29196;SDS011;62796;42.654;23.316;2022-10-31T04:30:18;15.13;;;8.13;;
29196;SDS011;62796;42.654;23.316;2022-10-31T04:32:44;17.58;;;8.63;;
29196;SDS011;62796;42.654;23.316;2022-10-31T04:35:09;21.00;;;9.77;;
29196;SDS011;62796;42.654;23.316;2022-10-31T04:37:34;24.97;;;10.33;;
29196;SDS011;62796;42.654;23.316;2022-10-31T04:39:59;15.68;;;9.95;;
29196;SDS011;62796;42.654;23.316;2022-10-31T04:42:25;18.43;;;10.13;;
29196;SDS011;62796;42.654;23.316;2022-10-31T04:44:50;18.07;;;9.97;;
29196;SDS011;62796;42.654;23.316;2022-10-31T04:47:15;17.33;;;9.40;;
29196;SDS011;62796;42.654;23.316;2022-10-31T04:49:40;17.23;;;9.40;;
29196;SDS011;62796;42.654;23.316;2022-10-31T04:52:05;12.00;;;8.90;;
29196;SDS011;62796;42.654;23.316;2022-10-31T04:54:32;17.85;;;9.07;;
29196;SDS011;62796;42.654;23.316;2022-10-31T04:56:57;17.75;;;9.85;;
29196;SDS011;62796;42.654;23.316;2022-10-31T04:59:22;16.87;;;9.27;;
29196;SDS011;62796;42.654;23.316;2022-10-31T05:01:47;17.02;;;9.32;;
29196;SDS011;62796;42.654;23.316;2022-10-31T05:04:13;12.57;;;8.37;;
29196;SDS011;62796;42.654;23.316;2022-10-31T05:06:38;14.83;;;8.80;;
29196;SDS011;62796;42.654;23.316;2022-10-31T05:09:03;15.10;;;9.63;;
29196;SDS011;62796;42.654;23.316;2022-10-31T05:11:28;16.15;;;9.70;;
29196;SDS011;62796;42.654;23.316;2022-10-31T05:13:54;13.87;;;9.07;;
29196;SDS011;62796;42.654;23.316;2022-10-31T05:16:19;14.33;;;10.47;;
29196;SDS011;62796;42.654;23.316;2022-10-31T05:18:44;18.67;;;10.82;;
29196;SDS011;62796;42.654;23.316;2022-10-31T05:21:09;19.45;;;10.50;;
29196;SDS011;62796;42.654;23.316;2022-10-31T05:23:35;25.83;;;11.07;;
29196;SDS011;62796;42.654;23.316;2022-10-31T05:26:00;18.40;;;10.27;;
29196;SDS011;62796;42.654;23.316;2022-10-31T05:28:25;27.17;;;12.15;;
29196;SDS011;62796;42.654;23.316;2022-10-31T05:30:50;23.87;;;11.70;;
29196;SDS011;62796;42.654;23.316;2022-10-31T05:33:16;19.58;;;10.82;;
29196;SDS011;62796;42.654;23.316;2022-10-31T05:35:41;19.37;;;10.67;;
29196;SDS011;62796;42.654;23.316;2022-10-31T05:38:06;21.10;;;12.83;;
29196;SDS011;62796;42.654;23.316;2022-10-31T05:40:31;21.75;;;11.48;;
29196;SDS011;62796;42.654;23.316;2022-10-31T05:42:56;26.10;;;11.70;;
29196;SDS011;62796;42.654;23.316;2022-10-31T05:45:23;19.45;;;10.15;;
29196;SDS011;62796;42.654;23.316;2022-10-31T05:47:58;16.02;;;10.32;;
29196;SDS011;62796;42.654;23.316;2022-10-31T05:50:24;25.67;;;10.77;;
29196;SDS011;62796;42.654;23.316;2022-10-31T05:53:00;19.98;;;10.98;;
29196;SDS011;62796;42.654;23.316;2022-10-31T05:55:25;20.60;;;11.32;;
29196;SDS011;62796;42.654;23.316;2022-10-31T05:57:51;23.63;;;11.90;;
29196;SDS011;62796;42.654;23.316;2022-10-31T06:00:17;17.48;;;10.70;;
29196;SDS011;62796;42.654;23.316;2022-10-31T06:02:42;20.80;;;11.13;;
29196;SDS011;62796;42.654;23.316;2022-10-31T06:05:07;20.43;;;11.10;;
29196;SDS011;62796;42.654;23.316;2022-10-31T06:07:33;18.80;;;11.15;;
29196;SDS011;62796;42.654;23.316;2022-10-31T06:09:59;20.83;;;11.57;;
29196;SDS011;62796;42.654;23.316;2022-10-31T06:12:24;19.27;;;11.45;;
29196;SDS011;62796;42.654;23.316;2022-10-31T06:14:49;27.20;;;12.77;;
29196;SDS011;62796;42.654;23.316;2022-10-31T06:17:14;29.20;;;13.53;;
29196;SDS011;62796;42.654;23.316;2022-10-31T06:19:40;21.30;;;12.55;;
29196;SDS011;62796;42.654;23.316;2022-10-31T06:22:05;22.20;;;12.60;;
29196;SDS011;62796;42.654;23.316;2022-10-31T06:24:30;17.90;;;12.10;;
29196;SDS011;62796;42.654;23.316;2022-10-31T06:26:55;22.10;;;12.03;;
29196;SDS011;62796;42.654;23.316;2022-10-31T06:29:21;21.43;;;11.73;;
29196;SDS011;62796;42.654;23.316;2022-10-31T06:31:46;24.25;;;12.20;;
29196;SDS011;62796;42.654;23.316;2022-10-31T06:34:11;25.53;;;12.17;;
29196;SDS011;62796;42.654;23.316;2022-10-31T06:36:36;23.87;;;13.17;;
29196;SDS011;62796;42.654;23.316;2022-10-31T06:39:02;24.03;;;11.90;;
29196;SDS011;62796;42.654;23.316;2022-10-31T06:41:27;25.85;;;12.38;;
29196;SDS011;62796;42.654;23.316;2022-10-31T06:43:52;22.87;;;12.30;;
29196;SDS011;62796;42.654;23.316;2022-10-31T06:46:17;16.52;;;11.82;;
29196;SDS011;62796;42.654;23.316;2022-10-31T06:48:43;22.80;;;12.73;;
29196;SDS011;62796;42.654;23.316;2022-10-31T06:51:08;24.47;;;12.87;;
29196;SDS011;62796;42.654;23.316;2022-10-31T06:53:33;27.77;;;12.60;;
29196;SDS011;62796;42.654;23.316;2022-10-31T06:55:58;22.80;;;13.37;;
29196;SDS011;62796;42.654;23.316;2022-10-31T06:58:24;24.23;;;13.20;;
29196;SDS011;62796;42.654;23.316;2022-10-31T07:00:49;18.63;;;12.77;;
29196;SDS011;62796;42.654;23.316;2022-10-31T07:03:15;23.50;;;12.48;;
29196;SDS011;62796;42.654;23.316;2022-10-31T07:05:40;19.85;;;13.57;;
29196;SDS011;62796;42.654;23.316;2022-10-31T07:08:06;23.02;;;13.48;;
29196;SDS011;62796;42.654;23.316;2022-10-31T07:10:33;19.48;;;13.55;;
29196;SDS011;62796;42.654;23.316;2022-10-31T07:12:59;32.83;;;13.40;;
29196;SDS011;62796;42.654;23.316;2022-10-31T07:15:25;26.83;;;13.05;;
29196;SDS011;62796;42.654;23.316;2022-10-31T07:17:50;25.42;;;13.27;;
29196;SDS011;62796;42.654;23.316;2022-10-31T07:20:15;23.60;;;11.93;;
29196;SDS011;62796;42.654;23.316;2022-10-31T07:22:41;22.10;;;12.85;;
29196;SDS011;62796;42.654;23.316;2022-10-31T07:25:06;30.85;;;13.05;;
29196;SDS011;62796;42.654;23.316;2022-10-31T07:27:38;24.88;;;13.05;;
29196;SDS011;62796;42.654;23.316;2022-10-31T07:30:04;38.25;;;15.13;;
29196;SDS011;62796;42.654;23.316;2022-10-31T07:32:39;29.20;;;14.18;;
29196;SDS011;62796;42.654;23.316;2022-10-31T07:35:06;21.85;;;12.77;;
29196;SDS011;62796;42.654;23.316;2022-10-31T07:37:32;23.40;;;13.55;;
29196;SDS011;62796;42.654;23.316;2022-10-31T07:39:57;25.33;;;14.43;;
29196;SDS011;62796;42.654;23.316;2022-10-31T07:42:22;24.60;;;14.05;;
29196;SDS011;62796;42.654;23.316;2022-10-31T07:44:47;29.00;;;13.87;;
29196;SDS011;62796;42.654;23.316;2022-10-31T07:47:13;28.75;;;14.30;;
29196;SDS011;62796;42.654;23.316;2022-10-31T07:49:38;26.77;;;13.47;;
29196;SDS011;62796;42.654;23.316;2022-10-31T07:52:03;22.03;;;13.47;;
29196;SDS011;62796;42.654;23.316;2022-10-31T07:54:28;25.73;;;14.37;;
29196;SDS011;62796;42.654;23.316;2022-10-31T07:56:54;29.53;;;14.37;;
29196;SDS011;62796;42.654;23.316;2022-10-31T07:59:19;26.33;;;16.93;;
29196;SDS011;62796;42.654;23.316;2022-10-31T08:01:44;27.10;;;15.23;;
29196;SDS011;62796;42.654;23.316;2022-10-31T08:04:09;30.70;;;14.77;;
29196;SDS011;62796;42.654;23.316;2022-10-31T08:06:35;24.77;;;15.00;;
29196;SDS011;62796;42.654;23.316;2022-10-31T08:09:00;26.73;;;14.40;;
29196;SDS011;62796;42.654;23.316;2022-10-31T08:11:25;30.67;;;14.70;;
29196;SDS011;62796;42.654;23.316;2022-10-31T08:13:50;23.07;;;14.13;;
29196;SDS011;62796;42.654;23.316;2022-10-31T08:16:16;21.53;;;13.73;;
29196;SDS011;62796;42.654;23.316;2022-10-31T08:18:41;26.27;;;15.93;;
29196;SDS011;62796;42.654;23.316;2022-10-31T08:21:06;33.33;;;15.17;;
29196;SDS011;62796;42.654;23.316;2022-10-31T08:23:31;37.43;;;14.90;;
29196;SDS011;62796;42.654;23.316;2022-10-31T08:25:57;30.47;;;13.63;;
29196;SDS011;62796;42.654;23.316;2022-10-31T08:28:22;24.23;;;12.50;;
29196;SDS011;62796;42.654;23.316;2022-10-31T08:30:47;20.13;;;11.13;;
29196;SDS011;62796;42.654;23.316;2022-10-31T08:33:16;24.63;;;11.88;;
29196;SDS011;62796;42.654;23.316;2022-10-31T08:35:42;31.00;;;17.73;;
29196;SDS011;62796;42.654;23.316;2022-10-31T08:38:08;24.67;;;13.05;;
29196;SDS011;62796;42.654;23.316;2022-10-31T08:40:34;25.15;;;13.38;;
29196;SDS011;62796;42.654;23.316;2022-10-31T08:45:25;22.40;;;11.90;;
29196;SDS011;62796;42.654;23.316;2022-10-31T08:47:51;30.23;;;13.10;;
29196;SDS011;62796;42.654;23.316;2022-10-31T08:50:17;25.92;;;14.07;;
29196;SDS011;62796;42.654;23.316;2022-10-31T08:52:42;26.92;;;13.57;;
29196;SDS011;62796;42.654;23.316;2022-10-31T08:55:07;22.10;;;12.43;;
29196;SDS011;62796;42.654;23.316;2022-10-31T08:57:32;28.92;;;12.65;;
29196;SDS011;62796;42.654;23.316;2022-10-31T08:59:58;19.63;;;11.67;;
29196;SDS011;62796;42.654;23.316;2022-10-31T09:02:23;25.40;;;12.37;;
29196;SDS011;62796;42.654;23.316;2022-10-31T09:04:48;23.87;;;11.23;;
29196;SDS011;62796;42.654;23.316;2022-10-31T09:07:13;18.17;;;11.63;;
29196;SDS011;62796;42.654;23.316;2022-10-31T09:09:39;21.10;;;11.40;;
29196;SDS011;62796;42.654;23.316;2022-10-31T09:12:04;20.90;;;12.20;;
29196;SDS011;62796;42.654;23.316;2022-10-31T09:14:29;27.67;;;11.65;;
29196;SDS011;62796;42.654;23.316;2022-10-31T09:16:54;26.87;;;12.90;;
29196;SDS011;62796;42.654;23.316;2022-10-31T09:19:20;22.50;;;10.63;;
29196;SDS011;62796;42.654;23.316;2022-10-31T09:21:45;20.07;;;11.00;;
29196;SDS011;62796;42.654;23.316;2022-10-31T09:24:10;34.37;;;12.40;;
29196;SDS011;62796;42.654;23.316;2022-10-31T09:26:36;25.65;;;11.30;;
29196;SDS011;62796;42.654;23.316;2022-10-31T09:29:01;17.77;;;9.53;;
29196;SDS011;62796;42.654;23.316;2022-10-31T09:31:27;17.13;;;9.10;;
29196;SDS011;62796;42.654;23.316;2022-10-31T09:33:52;19.02;;;9.20;;
29196;SDS011;62796;42.654;23.316;2022-10-31T09:36:17;17.65;;;9.35;;
29196;SDS011;62796;42.654;23.316;2022-10-31T09:38:43;18.77;;;10.20;;
29196;SDS011;62796;42.654;23.316;2022-10-31T09:51:29;20.20;;;8.43;;
29196;SDS011;62796;42.654;23.316;2022-10-31T09:54:03;16.75;;;8.13;;
29196;SDS011;62796;42.654;23.316;2022-10-31T09:56:31;17.05;;;7.75;;
29196;SDS011;62796;42.654;23.316;2022-10-31T09:58:58;14.18;;;7.82;;
29196;SDS011;62796;42.654;23.316;2022-10-31T10:06:38;15.38;;;6.80;;
29196;SDS011;62796;42.654;23.316;2022-10-31T10:09:07;10.23;;;6.57;;
29196;SDS011;62796;42.654;23.316;2022-10-31T10:14:48;10.20;;;4.90;;
29196;SDS011;62796;42.654;23.316;2022-10-31T10:27:49;15.30;;;5.68;;
29196;SDS011;62796;42.654;23.316;2022-10-31T10:32:50;17.30;;;5.20;;
29196;SDS011;62796;42.654;23.316;2022-10-31T10:37:49;8.57;;;4.90;;
29196;SDS011;62796;42.654;23.316;2022-10-31T10:40:24;12.15;;;4.25;;
29196;SDS011;62796;42.654;23.316;2022-10-31T10:43:01;11.68;;;5.32;;
29196;SDS011;62796;42.654;23.316;2022-10-31T10:46:06;15.05;;;6.18;;
29196;SDS011;62796;42.654;23.316;2022-10-31T10:51:47;7.93;;;3.92;;
29196;SDS011;62796;42.654;23.316;2022-10-31T10:59:11;11.67;;;4.50;;
29196;SDS011;62796;42.654;23.316;2022-10-31T11:01:38;10.77;;;4.10;;
29196;SDS011;62796;42.654;23.316;2022-10-31T11:04:07;14.38;;;4.88;;
29196;SDS011;62796;42.654;23.316;2022-10-31T11:06:40;15.07;;;3.80;;
29196;SDS011;62796;42.654;23.316;2022-10-31T11:09:08;7.80;;;3.83;;
29196;SDS011;62796;42.654;23.316;2022-10-31T11:11:35;7.97;;;3.40;;
29196;SDS011;62796;42.654;23.316;2022-10-31T11:14:02;7.40;;;3.20;;
29196;SDS011;62796;42.654;23.316;2022-10-31T11:21:53;11.45;;;3.70;;
29196;SDS011;62796;42.654;23.316;2022-10-31T11:26:49;13.27;;;4.47;;
29196;SDS011;62796;42.654;23.316;2022-10-31T11:29:16;11.52;;;4.15;;
29196;SDS011;62796;42.654;23.316;2022-10-31T11:31:42;15.07;;;5.18;;
29196;SDS011;62796;42.654;23.316;2022-10-31T11:34:15;9.02;;;4.60;;
29196;SDS011;62796;42.654;23.316;2022-10-31T11:36:43;10.80;;;3.97;;
29196;SDS011;62796;42.654;23.316;2022-10-31T11:39:22;11.30;;;3.65;;
29196;SDS011;62796;42.654;23.316;2022-10-31T11:41:47;10.43;;;3.28;;
29196;SDS011;62796;42.654;23.316;2022-10-31T11:44:26;10.07;;;4.20;;
29196;SDS011;62796;42.654;23.316;2022-10-31T11:46:56;13.10;;;5.25;;
29196;SDS011;62796;42.654;23.316;2022-10-31T11:51:55;15.57;;;6.22;;
29196;SDS011;62796;42.654;23.316;2022-10-31T11:54:26;10.73;;;3.70;;
29196;SDS011;62796;42.654;23.316;2022-10-31T11:56:52;16.77;;;4.13;;
29196;SDS011;62796;42.654;23.316;2022-10-31T11:59:22;10.35;;;4.80;;
29196;SDS011;62796;42.654;23.316;2022-10-31T12:01:49;8.75;;;3.45;;
29196;SDS011;62796;42.654;23.316;2022-10-31T12:04:14;7.22;;;3.38;;
29196;SDS011;62796;42.654;23.316;2022-10-31T12:06:42;12.77;;;4.15;;
29196;SDS011;62796;42.654;23.316;2022-10-31T12:21:59;11.00;;;4.20;;
29196;SDS011;62796;42.654;23.316;2022-10-31T12:24:35;10.35;;;4.25;;
29196;SDS011;62796;42.654;23.316;2022-10-31T12:27:08;14.70;;;4.70;;
29196;SDS011;62796;42.654;23.316;2022-10-31T12:32:23;18.63;;;4.72;;
29196;SDS011;62796;42.654;23.316;2022-10-31T12:34:58;14.25;;;5.22;;
29196;SDS011;62796;42.654;23.316;2022-10-31T12:53:04;17.55;;;4.80;;
29196;SDS011;62796;42.654;23.316;2022-10-31T12:58:49;8.57;;;3.42;;
29196;SDS011;62796;42.654;23.316;2022-10-31T13:01:01;12.98;;;3.55;;
29196;SDS011;62796;42.654;23.316;2022-10-31T13:05:56;10.87;;;4.10;;
29196;SDS011;62796;42.654;23.316;2022-10-31T13:08:24;14.70;;;4.15;;
29196;SDS011;62796;42.654;23.316;2022-10-31T13:11:01;9.55;;;4.15;;
29196;SDS011;62796;42.654;23.316;2022-10-31T13:13:30;10.90;;;4.75;;
29196;SDS011;62796;42.654;23.316;2022-10-31T13:16:02;13.80;;;4.30;;
29196;SDS011;62796;42.654;23.316;2022-10-31T13:18:38;16.08;;;3.92;;
29196;SDS011;62796;42.654;23.316;2022-10-31T13:21:08;8.75;;;4.00;;
29196;SDS011;62796;42.654;23.316;2022-10-31T13:23:35;9.63;;;3.85;;
29196;SDS011;62796;42.654;23.316;2022-10-31T13:26:12;13.73;;;4.68;;
29196;SDS011;62796;42.654;23.316;2022-10-31T13:28:46;10.57;;;4.32;;
29196;SDS011;62796;42.654;23.316;2022-10-31T13:31:12;16.58;;;4.88;;
29196;SDS011;62796;42.654;23.316;2022-10-31T13:48:56;18.80;;;4.28;;
29196;SDS011;62796;42.654;23.316;2022-10-31T13:51:28;9.13;;;3.60;;
29196;SDS011;62796;42.654;23.316;2022-10-31T13:56:26;12.37;;;3.97;;
29196;SDS011;62796;42.654;23.316;2022-10-31T14:01:24;14.10;;;5.07;;
29196;SDS011;62796;42.654;23.316;2022-10-31T14:04:00;13.10;;;4.55;;
29196;SDS011;62796;42.654;23.316;2022-10-31T14:06:37;14.27;;;4.30;;
29196;SDS011;62796;42.654;23.316;2022-10-31T14:09:03;13.63;;;4.28;;
29196;SDS011;62796;42.654;23.316;2022-10-31T14:11:29;11.13;;;4.00;;
29196;SDS011;62796;42.654;23.316;2022-10-31T14:13:55;9.80;;;3.97;;
29196;SDS011;62796;42.654;23.316;2022-10-31T14:16:24;12.10;;;3.83;;
29196;SDS011;62796;42.654;23.316;2022-10-31T14:18:51;10.48;;;4.20;;
29196;SDS011;62796;42.654;23.316;2022-10-31T14:23:50;15.90;;;4.40;;
29196;SDS011;62796;42.654;23.316;2022-10-31T14:28:57;24.10;;;5.75;;
29196;SDS011;62796;42.654;23.316;2022-10-31T14:31:33;30.65;;;7.82;;
29196;SDS011;62796;42.654;23.316;2022-10-31T14:34:01;20.75;;;10.07;;
29196;SDS011;62796;42.654;23.316;2022-10-31T14:46:19;23.03;;;6.47;;
29196;SDS011;62796;42.654;23.316;2022-10-31T14:51:19;26.25;;;7.50;;
29196;SDS011;62796;42.654;23.316;2022-10-31T14:53:48;26.40;;;6.60;;
29196;SDS011;62796;42.654;23.316;2022-10-31T14:56:17;24.85;;;6.82;;
29196;SDS011;62796;42.654;23.316;2022-10-31T14:58:45;25.30;;;7.53;;
29196;SDS011;62796;42.654;23.316;2022-10-31T15:01:27;31.92;;;7.80;;
29196;SDS011;62796;42.654;23.316;2022-10-31T15:03:55;34.22;;;11.10;;
29196;SDS011;62796;42.654;23.316;2022-10-31T15:06:22;37.60;;;16.08;;
29196;SDS011;62796;42.654;23.316;2022-10-31T15:08:49;35.53;;;9.40;;
29196;SDS011;62796;42.654;23.316;2022-10-31T15:11:19;30.67;;;9.02;;
29196;SDS011;62796;42.654;23.316;2022-10-31T15:16:10;32.13;;;9.13;;
29196;SDS011;62796;42.654;23.316;2022-10-31T15:18:36;40.72;;;10.05;;
29196;SDS011;62796;42.654;23.316;2022-10-31T15:21:03;50.53;;;12.05;;
29196;SDS011;62796;42.654;23.316;2022-10-31T15:23:29;42.75;;;12.00;;
29196;SDS011;62796;42.654;23.316;2022-10-31T15:26:01;49.60;;;12.15;;
29196;SDS011;62796;42.654;23.316;2022-10-31T15:28:28;55.08;;;13.57;;
29196;SDS011;62796;42.654;23.316;2022-10-31T15:30:54;37.05;;;11.82;;
29196;SDS011;62796;42.654;23.316;2022-10-31T15:33:24;43.63;;;12.60;;
29196;SDS011;62796;42.654;23.316;2022-10-31T15:35:56;39.17;;;9.88;;
29196;SDS011;62796;42.654;23.316;2022-10-31T15:38:23;28.23;;;8.63;;
29196;SDS011;62796;42.654;23.316;2022-10-31T15:40:52;31.60;;;9.27;;
29196;SDS011;62796;42.654;23.316;2022-10-31T15:43:18;24.70;;;7.28;;
29196;SDS011;62796;42.654;23.316;2022-10-31T15:45:43;22.77;;;6.60;;
29196;SDS011;62796;42.654;23.316;2022-10-31T15:48:15;14.97;;;6.73;;
29196;SDS011;62796;42.654;23.316;2022-10-31T15:50:45;22.23;;;7.33;;
29196;SDS011;62796;42.654;23.316;2022-10-31T15:53:18;20.40;;;6.57;;
29196;SDS011;62796;42.654;23.316;2022-10-31T15:55:49;21.40;;;6.57;;
29196;SDS011;62796;42.654;23.316;2022-10-31T15:58:15;25.75;;;6.10;;
29196;SDS011;62796;42.654;23.316;2022-10-31T16:00:41;20.10;;;6.60;;
29196;SDS011;62796;42.654;23.316;2022-10-31T16:03:20;15.88;;;5.93;;
29196;SDS011;62796;42.654;23.316;2022-10-31T16:10:58;24.10;;;6.80;;
29196;SDS011;62796;42.654;23.316;2022-10-31T16:16:14;28.40;;;8.25;;
29196;SDS011;62796;42.654;23.316;2022-10-31T16:18:40;22.95;;;7.60;;
29196;SDS011;62796;42.654;23.316;2022-10-31T16:21:06;23.27;;;7.38;;
29196;SDS011;62796;42.654;23.316;2022-10-31T16:23:31;30.50;;;9.07;;
29196;SDS011;62796;42.654;23.316;2022-10-31T16:25:57;25.80;;;9.52;;
29196;SDS011;62796;42.654;23.316;2022-10-31T16:28:26;28.35;;;9.35;;
29196;SDS011;62796;42.654;23.316;2022-10-31T16:30:52;19.75;;;6.28;;
29196;SDS011;62796;42.654;23.316;2022-10-31T16:33:26;22.02;;;7.40;;
29196;SDS011;62796;42.654;23.316;2022-10-31T16:38:17;34.30;;;8.82;;
29196;SDS011;62796;42.654;23.316;2022-10-31T16:40:42;27.80;;;8.77;;
29196;SDS011;62796;42.654;23.316;2022-10-31T16:43:09;22.38;;;7.18;;
29196;SDS011;62796;42.654;23.316;2022-10-31T16:45:35;21.83;;;7.82;;
29196;SDS011;62796;42.654;23.316;2022-10-31T16:48:03;24.85;;;7.80;;
29196;SDS011;62796;42.654;23.316;2022-10-31T16:50:28;38.42;;;9.55;;
29196;SDS011;62796;42.654;23.316;2022-10-31T16:52:53;27.17;;;8.57;;
29196;SDS011;62796;42.654;23.316;2022-10-31T16:55:19;16.33;;;6.63;;
29196;SDS011;62796;42.654;23.316;2022-10-31T16:57:46;21.60;;;7.57;;
29196;SDS011;62796;42.654;23.316;2022-10-31T17:00:12;25.20;;;7.20;;
29196;SDS011;62796;42.654;23.316;2022-10-31T17:02:38;30.58;;;11.90;;
29196;SDS011;62796;42.654;23.316;2022-10-31T17:05:03;24.50;;;7.97;;
29196;SDS011;62796;42.654;23.316;2022-10-31T17:07:29;20.48;;;8.23;;
29196;SDS011;62796;42.654;23.316;2022-10-31T17:09:54;21.87;;;8.50;;
29196;SDS011;62796;42.654;23.316;2022-10-31T17:12:19;24.35;;;8.55;;
29196;SDS011;62796;42.654;23.316;2022-10-31T17:14:47;20.33;;;6.95;;